Hauptseite
METAR-TAF:

METAR-TAF

Flughäfen :

Rabat, Marokko

Flughafen Rabat-Salé

Breite: 34-03N, Länge: 006-46W, Höhe: 84 m

Beobachtung

Neuester Wetterbericht von vor 23 Minuten, um 11:30 UTC
Wind 8 kt aus Nord/Nordost, variierte zwischen Nord und Nordost
Temperatur 19°C
Luftfeuchtigkeit 56%
Luftdruck 1026 hPa
Sichtweite: 8000 m
Leicht bewölkt in der Höhe von 1600 ft

METAR: GMME 281130Z 02008KT 350V050 8000 FEW016 19/10 Q1026 NOSIG

Zeit: 12:53 (11:53 UTC)

Prognose

Neuester Wetterbericht von vor 53 Minuten, um 11:00 UTC
Gültige Prognose vom 28 um 12 UTC bis 29 um 18 UTC
Wind 6 kt aus Nord/Nordwest
Sichtweite: 8000 m
Übergehend zu
vom 29 um 01 UTC bis 29 um 02 UTC
Sichtweite: 3000 m
feuchter Dunst
Übergehend zu
vom 29 um 06 UTC bis 29 um 08 UTC
Sichtweite: 8000 m

TAF: GMME 281100Z 2812/2918 33006KT 8000 NSC BECMG 2901/2902 3000 BR BECMG 2906/2908 8000

Wetterbeobachtungen und Prognosen von mehr als 4000 Flughäfen (METAR und TAF Bericht).

Die verfügbaren Stationen werden durch gelbe und rote Markierungen auf der Karte dargestellt.

Führen Sie die Maus auf sie, um den Namen der Station zu sehen.

Darauf klicken, um die Beobachtung von Wetterbeobachtungen und Prognosen zu sehen.

Um die Karte zu ändern : klicken Sie auf den grünen Tasten mit einem schwarzen Kreuz Zum Vergrößern, auf den grünen Button mit einem Gedankenstrich zu verkleinern, oder auf die grünen Pfeile für benachbarte Karten.


METAR-TAF: